Time;durP1;ratioP1;P1;durP2;ratioP2;P2;SDS_P1;SDS_P2;PMS_P1;PMS_P2;Temp;Humidity;BMP_temperature;BMP_pressure;BME280_temperature;BME280_humidity;BME280_pressure;Samples;Min_cycle;Max_cycle;Signal;HPM_P1;HPM_P2
2023/07/01 00:01:51;;;;;;;18.45;16.30;;;20.40;1.00;;;;;;5115244;28;20430;-61
2023/07/01 00:04:17;;;;;;;20.30;15.18;;;20.40;1.00;;;;;;5116030;28;20493;-61
2023/07/01 00:06:42;;;;;;;19.25;15.43;;;20.40;1.00;;;;;;5088355;28;20524;-61
2023/07/01 00:09:10;;;;;;;16.85;13.75;;;20.50;1.00;;;;;;5089754;28;20024;-61
2023/07/01 00:11:36;;;;;;;16.80;14.55;;;20.50;1.00;;;;;;5094596;28;20027;-61
2023/07/01 00:14:02;;;;;;;17.35;14.38;;;20.60;1.00;;;;;;5095545;28;20023;-61
2023/07/01 00:16:27;;;;;;;17.67;14.68;;;20.50;1.00;;;;;;5092550;28;20426;-61
2023/07/01 00:18:53;;;;;;;17.60;15.80;;;20.50;1.00;;;;;;5085198;28;20113;-61
2023/07/01 00:21:19;;;;;;;20.85;17.25;;;20.50;1.00;;;;;;5094034;28;20028;-61
2023/07/01 00:23:45;;;;;;;21.65;16.83;;;20.50;1.00;;;;;;5089245;28;20371;-61
2023/07/01 00:26:11;;;;;;;21.95;18.38;;;20.50;1.00;;;;;;5089998;28;20035;-61
2023/07/01 00:28:36;;;;;;;25.67;21.42;;;20.50;1.00;;;;;;5080241;28;20028;-61
2023/07/01 00:31:02;;;;;;;27.38;21.85;;;20.50;1.00;;;;;;5083766;28;20020;-61
2023/07/01 00:33:28;;;;;;;27.42;22.27;;;20.40;1.00;;;;;;5088693;28;20035;-61
2023/07/01 00:35:53;;;;;;;30.75;25.35;;;20.50;1.00;;;;;;5095111;28;20411;-61
2023/07/01 00:38:19;;;;;;;32.53;26.40;;;20.40;1.00;;;;;;5094084;28;20531;-61
2023/07/01 00:40:45;;;;;;;31.13;27.17;;;20.50;1.00;;;;;;5094667;28;20023;-61
2023/07/01 00:43:10;;;;;;;32.38;26.10;;;20.40;1.00;;;;;;5085847;28;20035;-61
2023/07/01 00:45:36;;;;;;;36.15;26.92;;;20.40;1.00;;;;;;5078957;28;20017;-61
2023/07/01 00:48:02;;;;;;;36.42;29.52;;;20.50;1.00;;;;;;5084948;28;20081;-61
2023/07/01 00:50:28;;;;;;;40.88;32.00;;;20.60;1.00;;;;;;5093121;28;20035;-61
2023/07/01 00:52:54;;;;;;;41.90;32.15;;;20.60;1.00;;;;;;5094450;28;20050;-61
2023/07/01 00:55:19;;;;;;;41.38;33.17;;;20.50;1.00;;;;;;5089334;28;20478;-61
2023/07/01 00:57:45;;;;;;;39.85;30.75;;;20.40;1.00;;;;;;5093275;28;20035;-61
2023/07/01 01:00:12;;;;;;;43.72;34.05;;;20.40;1.00;;;;;;5094333;28;20440;-61
2023/07/01 01:02:45;;;;;;;46.03;33.40;;;20.50;1.00;;;;;;5091454;28;20531;-61
2023/07/01 01:05:18;;;;;;;41.33;33.85;;;20.50;1.00;;;;;;5082983;28;20024;-61
2023/07/01 01:08:03;;;;;;;44.78;35.05;;;20.50;1.00;;;;;;5107753;28;20043;-61
2023/07/01 01:10:32;;;;;;;46.20;35.33;;;20.50;1.00;;;;;;5107103;28;20066;-61
2023/07/01 01:13:00;;;;;;;44.38;35.88;;;20.50;1.00;;;;;;5102563;28;20035;-61
2023/07/01 01:15:27;;;;;;;45.83;36.17;;;20.50;1.00;;;;;;5106233;28;20073;-61
2023/07/01 01:17:56;;;;;;;47.97;36.15;;;20.50;1.00;;;;;;5105507;28;20505;-61
2023/07/01 01:20:23;;;;;;;47.28;35.15;;;20.50;1.00;;;;;;5099705;28;20102;-60
2023/07/01 01:22:57;;;;;;;45.40;35.97;;;20.50;1.00;;;;;;5107401;28;20036;-61
2023/07/01 01:25:32;;;;;;;48.30;35.28;;;20.50;1.00;;;;;;5110184;28;20035;-61
2023/07/01 01:27:58;;;;;;;44.70;34.47;;;20.50;1.00;;;;;;5097204;28;20028;-61
2023/07/01 01:30:24;;;;;;;43.88;34.25;;;20.50;1.00;;;;;;5110739;28;20022;-61
2023/07/01 01:32:50;;;;;;;41.65;32.53;;;20.50;1.00;;;;;;5114455;28;20024;-61
2023/07/01 01:35:16;;;;;;;39.42;30.70;;;20.50;1.00;;;;;;5093745;28;20522;-61
2023/07/01 01:37:47;;;;;;;41.30;32.60;;;20.50;1.00;;;;;;5113987;28;20484;-61
2023/07/01 01:40:36;;;;;;;43.83;31.83;;;20.50;1.00;;;;;;5113000;28;20030;-61
2023/07/01 01:43:12;;;;;;;41.33;31.17;;;20.50;1.00;;;;;;5113504;28;20035;-61
2023/07/01 01:45:38;;;;;;;39.97;31.30;;;20.40;1.00;;;;;;5113894;28;20028;-61
2023/07/01 01:48:05;;;;;;;41.35;30.88;;;20.50;1.00;;;;;;5107240;28;20031;-61
2023/07/01 01:50:32;;;;;;;40.17;31.45;;;20.60;1.00;;;;;;5111517;28;20028;-61
2023/07/01 01:53:01;;;;;;;37.00;29.40;;;20.60;1.00;;;;;;5095806;28;20031;-61
2023/07/01 01:55:29;;;;;;;35.38;28.08;;;20.60;1.00;;;;;;5113272;28;20419;-61
2023/07/01 01:57:55;;;;;;;34.55;27.73;;;20.50;1.00;;;;;;5112144;28;20059;-61
2023/07/01 02:00:21;;;;;;;32.13;26.13;;;20.50;1.00;;;;;;5113727;28;20031;-61
2023/07/01 02:02:47;;;;;;;39.10;28.15;;;20.60;1.00;;;;;;5107006;28;20023;-61
2023/07/01 02:05:12;;;;;;;40.00;29.08;;;20.60;1.00;;;;;;5113821;28;20027;-61
2023/07/01 02:07:38;;;;;;;33.35;25.83;;;20.60;1.00;;;;;;5112367;28;20052;-61
2023/07/01 02:10:05;;;;;;;34.65;25.77;;;20.60;1.00;;;;;;5112663;28;20028;-61
2023/07/01 02:12:31;;;;;;;37.05;26.90;;;20.60;1.00;;;;;;5113250;28;20038;-62
2023/07/01 02:14:56;;;;;;;31.13;23.77;;;20.60;1.00;;;;;;5113427;28;20027;-61
2023/07/01 02:17:22;;;;;;;30.60;24.42;;;20.60;1.00;;;;;;5110180;28;20154;-61
2023/07/01 02:19:48;;;;;;;31.90;23.70;;;20.60;1.00;;;;;;5113464;28;20069;-61
2023/07/01 02:22:14;;;;;;;31.75;23.27;;;20.60;1.00;;;;;;5074721;28;20023;-61
2023/07/01 02:24:39;;;;;;;30.75;24.15;;;20.60;1.00;;;;;;5092956;28;20066;-61
2023/07/01 02:27:05;;;;;;;32.22;24.52;;;20.60;1.00;;;;;;5104252;28;20052;-61
2023/07/01 02:29:31;;;;;;;30.55;23.88;;;20.70;1.00;;;;;;5113315;28;20385;-61
2023/07/01 02:31:57;;;;;;;30.55;24.58;;;20.60;1.00;;;;;;5107459;28;20038;-61
2023/07/01 02:34:27;;;;;;;29.85;23.65;;;20.50;1.00;;;;;;5113210;28;20047;-61
2023/07/01 02:36:53;;;;;;;35.17;26.58;;;20.60;1.00;;;;;;5112640;28;20024;-61
2023/07/01 02:39:19;;;;;;;28.83;22.10;;;20.60;1.00;;;;;;5113309;28;20074;-61
2023/07/01 02:41:44;;;;;;;32.45;23.65;;;20.60;1.00;;;;;;5104732;28;20043;-61
2023/07/01 02:44:11;;;;;;;30.52;23.40;;;20.60;1.00;;;;;;5111633;28;20036;-62
2023/07/01 02:46:37;;;;;;;32.83;24.05;;;20.60;1.00;;;;;;5105707;28;20050;-61
2023/07/01 02:49:03;;;;;;;31.60;22.67;;;20.60;1.00;;;;;;5117393;28;20461;-61
2023/07/01 02:51:30;;;;;;;33.80;24.52;;;20.60;1.00;;;;;;5116116;28;20019;-61
2023/07/01 02:53:55;;;;;;;32.17;24.70;;;20.50;1.00;;;;;;5116727;28;20028;-62
2023/07/01 02:56:21;;;;;;;36.80;26.08;;;20.60;1.00;;;;;;5113803;28;20031;-61
2023/07/01 02:58:47;;;;;;;31.25;24.90;;;20.60;1.00;;;;;;5101642;28;20132;-61
2023/07/01 03:01:13;;;;;;;34.17;24.85;;;20.50;1.00;;;;;;5116622;28;20107;-61
2023/07/01 03:03:40;;;;;;;31.52;25.52;;;20.50;1.00;;;;;;5115894;28;20030;-61
2023/07/01 03:06:06;;;;;;;34.42;26.65;;;20.60;1.00;;;;;;5115860;28;20024;-62
2023/07/01 03:08:32;;;;;;;32.22;24.13;;;20.50;1.00;;;;;;5112742;28;20039;-62
2023/07/01 03:10:58;;;;;;;34.15;25.85;;;20.50;1.00;;;;;;5116364;28;20024;-61
2023/07/01 03:13:23;;;;;;;31.83;25.20;;;20.60;1.00;;;;;;5109964;28;20102;-61
2023/07/01 03:15:50;;;;;;;32.22;26.60;;;20.60;1.00;;;;;;5109993;28;20437;-61
2023/07/01 03:18:16;;;;;;;33.78;25.90;;;20.60;1.00;;;;;;5096884;28;20039;-61
2023/07/01 03:20:42;;;;;;;33.40;25.05;;;20.60;1.00;;;;;;5102813;28;20020;-62
2023/07/01 03:23:08;;;;;;;33.63;26.02;;;20.60;1.00;;;;;;5098196;28;20117;-63
2023/07/01 03:25:35;;;;;;;36.20;27.02;;;20.70;1.00;;;;;;5115522;28;20072;-62
2023/07/01 03:28:03;;;;;;;38.80;28.50;;;20.60;1.00;;;;;;5108293;28;20122;-62
2023/07/01 03:30:30;;;;;;;50.20;36.78;;;20.60;1.00;;;;;;5116111;28;20028;-61
2023/07/01 03:32:56;;;;;;;50.70;39.83;;;20.60;1.00;;;;;;5111558;28;20091;-62
2023/07/01 03:35:22;;;;;;;58.47;41.47;;;20.70;1.00;;;;;;5116284;28;20381;-62
2023/07/01 03:37:48;;;;;;;55.60;42.42;;;20.70;1.00;;;;;;5100203;28;20354;-61
2023/07/01 03:40:14;;;;;;;56.55;42.47;;;20.70;1.00;;;;;;5106855;28;20035;-61
2023/07/01 03:42:41;;;;;;;58.38;43.60;;;20.70;1.00;;;;;;5098077;28;20206;-63
2023/07/01 03:45:10;;;;;;;59.42;43.88;;;20.70;1.00;;;;;;5115351;28;20019;-61
2023/07/01 03:47:38;;;;;;;61.30;45.53;;;20.80;1.00;;;;;;5114942;28;20028;-61
2023/07/01 03:50:07;;;;;;;60.67;47.33;;;20.70;1.00;;;;;;5101517;28;20047;-61
2023/07/01 03:52:36;;;;;;;63.40;50.40;;;20.70;1.00;;;;;;5114440;28;20024;-61
2023/07/01 03:55:03;;;;;;;70.75;51.88;;;20.60;1.00;;;;;;5109783;28;20024;-64
2023/07/01 03:57:28;;;;;;;59.33;44.22;;;20.70;1.00;;;;;;5111043;28;20114;-62
2023/07/01 03:59:55;;;;;;;60.80;45.30;;;20.70;1.00;;;;;;5097291;28;20024;-61
2023/07/01 04:02:21;;;;;;;64.28;49.05;;;20.70;1.00;;;;;;5113882;28;20023;-61
2023/07/01 04:04:47;;;;;;;67.35;49.10;;;20.70;1.00;;;;;;5101118;28;20028;-61
2023/07/01 04:07:13;;;;;;;64.35;48.60;;;20.70;1.00;;;;;;5105764;28;20093;-61
2023/07/01 04:09:39;;;;;;;67.85;49.25;;;20.70;1.00;;;;;;5095143;28;20024;-61
2023/07/01 04:12:05;;;;;;;64.30;49.00;;;20.70;1.00;;;;;;5104474;28;20022;-61
2023/07/01 04:14:31;;;;;;;68.50;50.15;;;20.70;1.00;;;;;;5112158;28;20426;-61
2023/07/01 04:16:56;;;;;;;71.72;50.95;;;20.60;1.00;;;;;;5108373;28;20008;-61
2023/07/01 04:19:23;;;;;;;65.80;48.45;;;20.60;1.00;;;;;;5111758;28;20051;-61
2023/07/01 04:21:48;;;;;;;66.47;48.55;;;20.60;1.00;;;;;;5115219;28;20558;-61
2023/07/01 04:24:14;;;;;;;68.20;48.03;;;20.70;1.00;;;;;;5104123;28;20028;-61
2023/07/01 04:26:44;;;;;;;72.15;49.17;;;20.60;1.00;;;;;;5114982;28;20027;-61
2023/07/01 04:29:10;;;;;;;65.95;47.80;;;20.70;1.00;;;;;;5107771;28;20024;-61
2023/07/01 04:31:35;;;;;;;66.53;47.50;;;20.80;1.00;;;;;;5110503;28;20481;-61
2023/07/01 04:34:01;;;;;;;66.20;46.45;;;20.70;1.00;;;;;;5103054;28;20024;-61
2023/07/01 04:36:27;;;;;;;65.93;46.75;;;20.70;1.00;;;;;;5104857;28;20034;-61
2023/07/01 04:38:52;;;;;;;68.80;48.30;;;20.70;1.00;;;;;;5114764;28;20042;-61
2023/07/01 04:41:18;;;;;;;64.43;45.45;;;20.70;1.00;;;;;;5104862;28;20476;-61
2023/07/01 04:43:44;;;;;;;61.15;43.75;;;20.80;1.00;;;;;;5114988;28;20114;-61
2023/07/01 04:46:10;;;;;;;54.42;37.15;;;20.90;1.00;;;;;;5084668;28;20032;-61
2023/07/01 04:48:35;;;;;;;47.25;33.47;;;20.80;1.00;;;;;;5095013;28;20039;-61
2023/07/01 04:51:01;;;;;;;54.10;35.53;;;20.80;1.00;;;;;;5114667;28;20026;-62
2023/07/01 04:53:27;;;;;;;42.17;30.60;;;20.80;1.00;;;;;;5106558;28;20059;-60
2023/07/01 04:55:53;;;;;;;43.22;30.95;;;20.80;1.00;;;;;;5114539;28;20427;-60
2023/07/01 04:58:18;;;;;;;44.78;32.63;;;20.80;1.00;;;;;;5113232;28;20032;-60
2023/07/01 05:00:44;;;;;;;44.78;31.52;;;20.80;1.00;;;;;;5111109;28;20023;-60
2023/07/01 05:03:10;;;;;;;42.92;31.55;;;20.80;1.00;;;;;;5108985;28;20073;-59
2023/07/01 05:05:36;;;;;;;45.03;31.90;;;20.90;1.00;;;;;;5104510;28;20042;-60
2023/07/01 05:08:02;;;;;;;43.53;30.65;;;20.90;1.00;;;;;;5113853;28;20044;-60
2023/07/01 05:10:28;;;;;;;44.50;30.83;;;20.90;1.00;;;;;;5104250;28;20426;-60
2023/07/01 05:12:54;;;;;;;52.70;36.13;;;21.00;1.00;;;;;;5095613;28;20027;-60
2023/07/01 05:15:19;;;;;;;49.22;35.22;;;21.10;1.00;;;;;;5100448;28;20496;-60
2023/07/01 05:17:46;;;;;;;52.10;35.78;;;21.00;1.00;;;;;;5114181;28;20039;-60
2023/07/01 05:20:11;;;;;;;50.25;35.40;;;20.90;1.00;;;;;;5094917;28;20102;-60
2023/07/01 05:22:37;;;;;;;55.92;38.65;;;21.00;1.00;;;;;;5108772;28;20032;-60
2023/07/01 05:25:04;;;;;;;54.10;37.78;;;21.10;1.00;;;;;;5105855;28;20020;-60
2023/07/01 05:27:30;;;;;;;53.47;37.20;;;21.10;1.00;;;;;;5112784;28;20031;-60
2023/07/01 05:29:57;;;;;;;51.95;36.35;;;21.00;1.00;;;;;;5113771;28;20410;-60
2023/07/01 05:32:23;;;;;;;53.83;38.30;;;21.10;1.00;;;;;;5112941;28;20066;-60
2023/07/01 05:34:49;;;;;;;52.25;36.83;;;21.10;1.00;;;;;;5105550;28;20047;-60
2023/07/01 05:37:15;;;;;;;53.17;38.75;;;21.20;1.00;;;;;;5112522;28;20040;-61
2023/07/01 05:39:41;;;;;;;45.10;32.88;;;21.10;1.00;;;;;;5113596;28;20036;-60
2023/07/01 05:42:07;;;;;;;44.20;33.22;;;21.10;1.00;;;;;;5108012;28;20026;-60
2023/07/01 05:44:32;;;;;;;46.40;33.22;;;20.80;1.00;;;;;;5113431;28;20024;-60
2023/07/01 05:46:58;;;;;;;48.67;33.03;;;20.80;1.00;;;;;;5107109;28;20107;-59
2023/07/01 05:49:24;;;;;;;46.38;34.00;;;20.80;1.00;;;;;;5113264;28;20031;-60
2023/07/01 05:51:51;;;;;;;45.85;33.00;;;21.10;1.00;;;;;;5105092;28;20040;-60
2023/07/01 05:54:17;;;;;;;50.05;34.42;;;21.30;1.00;;;;;;5099175;28;20015;-60
2023/07/01 05:56:42;;;;;;;46.88;32.63;;;21.30;1.00;;;;;;5084068;28;20035;-60
2023/07/01 05:59:08;;;;;;;54.35;36.08;;;21.20;1.00;;;;;;5092767;28;20492;-60
2023/07/01 06:01:33;;;;;;;48.03;33.72;;;21.20;1.00;;;;;;5109461;28;20020;-60
2023/07/01 06:04:00;;;;;;;46.08;32.72;;;21.20;1.00;;;;;;5105355;28;20034;-60
2023/07/01 06:06:25;;;;;;;45.05;30.98;;;21.20;1.00;;;;;;5111367;28;20105;-60
2023/07/01 06:08:51;;;;;;;43.83;31.63;;;21.30;1.00;;;;;;5084894;28;20019;-60
2023/07/01 06:11:17;;;;;;;44.58;30.08;;;21.30;1.00;;;;;;5112898;28;20076;-60
2023/07/01 06:13:46;;;;;;;39.75;28.35;;;21.20;1.00;;;;;;5095538;28;20107;-59
2023/07/01 06:16:14;;;;;;;37.35;26.40;;;21.10;1.00;;;;;;5107346;28;20047;-60
2023/07/01 06:18:40;;;;;;;43.75;32.22;;;21.30;1.00;;;;;;5075031;28;20028;-60
2023/07/01 06:21:09;;;;;;;45.55;30.75;;;21.40;1.00;;;;;;5093613;28;20419;-60
2023/07/01 06:23:38;;;;;;;43.28;31.33;;;21.50;1.00;;;;;;5111379;28;20027;-61
2023/07/01 06:26:04;;;;;;;44.58;30.90;;;21.70;1.00;;;;;;5109881;28;20031;-61
2023/07/01 06:28:30;;;;;;;44.55;31.77;;;21.60;1.00;;;;;;5110713;28;20031;-60
2023/07/01 06:30:56;;;;;;;44.17;30.90;;;21.70;1.00;;;;;;5102106;28;20374;-60
2023/07/01 06:33:25;;;;;;;36.28;28.10;;;21.50;1.00;;;;;;5098850;28;20036;-61
2023/07/01 06:35:51;;;;;;;39.03;28.23;;;21.50;1.00;;;;;;5112926;28;20034;-61
2023/07/01 06:38:17;;;;;;;42.58;29.63;;;21.50;1.00;;;;;;5111383;28;20381;-61
2023/07/01 06:40:42;;;;;;;38.83;28.48;;;21.60;1.00;;;;;;5099454;28;20480;-61
2023/07/01 06:43:08;;;;;;;41.05;28.15;;;21.50;1.00;;;;;;5094580;28;20024;-61
2023/07/01 06:45:36;;;;;;;42.53;29.77;;;21.60;1.00;;;;;;5111840;28;20020;-61
2023/07/01 06:48:01;;;;;;;40.67;29.20;;;21.70;1.00;;;;;;5112780;28;20026;-61
2023/07/01 06:50:27;;;;;;;37.67;27.23;;;21.70;1.00;;;;;;5107272;28;20389;-61
2023/07/01 06:52:53;;;;;;;42.35;27.92;;;21.70;1.00;;;;;;5112757;28;20442;-61
2023/07/01 06:55:19;;;;;;;42.05;29.13;;;21.70;1.00;;;;;;5112161;28;20430;-61
2023/07/01 06:57:44;;;;;;;39.25;28.75;;;21.90;1.00;;;;;;5111390;28;20476;-61
2023/07/01 07:00:12;;;;;;;43.47;29.08;;;22.00;1.00;;;;;;5111955;28;20089;-61
2023/07/01 07:02:38;;;;;;;37.35;27.95;;;22.00;1.00;;;;;;5111390;28;20022;-61
2023/07/01 07:05:06;;;;;;;41.78;29.55;;;22.00;1.00;;;;;;5112434;28;20485;-61
2023/07/01 07:07:32;;;;;;;40.47;28.65;;;22.10;1.00;;;;;;5109468;28;20047;-61
2023/07/01 07:09:59;;;;;;;39.80;29.05;;;22.10;1.00;;;;;;5102189;28;20016;-61
2023/07/01 07:12:25;;;;;;;37.28;27.42;;;22.10;1.00;;;;;;5112551;28;20563;-61
2023/07/01 07:14:54;;;;;;;37.45;26.92;;;22.00;1.00;;;;;;5093054;28;20106;-61
2023/07/01 07:17:20;;;;;;;38.80;27.30;;;22.10;1.00;;;;;;5112758;28;20342;-61
2023/07/01 07:19:45;;;;;;;38.13;27.85;;;22.20;1.00;;;;;;5081924;28;20039;-61
2023/07/01 07:22:11;;;;;;;38.45;27.30;;;22.20;1.00;;;;;;5112774;28;20012;-61
2023/07/01 07:24:38;;;;;;;37.22;27.48;;;22.30;1.00;;;;;;5111632;28;20028;-61
2023/07/01 07:27:03;;;;;;;37.85;26.55;;;22.40;1.00;;;;;;5084646;28;20039;-61
2023/07/01 07:29:30;;;;;;;37.97;26.08;;;22.40;1.00;;;;;;5110375;28;20023;-61
2023/07/01 07:31:57;;;;;;;35.63;26.17;;;22.30;1.00;;;;;;5075760;28;20115;-61
2023/07/01 07:34:24;;;;;;;34.83;26.00;;;22.20;1.00;;;;;;5094743;28;20020;-61
2023/07/01 07:36:50;;;;;;;35.63;25.13;;;22.40;1.00;;;;;;5080502;28;20039;-61
2023/07/01 07:39:16;;;;;;;35.30;25.55;;;22.50;1.00;;;;;;5086013;28;20042;-61
2023/07/01 07:41:43;;;;;;;31.42;24.38;;;22.60;1.00;;;;;;5115831;28;20061;-61
2023/07/01 07:44:09;;;;;;;31.65;24.42;;;22.60;1.00;;;;;;5102264;28;20031;-61
2023/07/01 07:46:35;;;;;;;31.67;24.20;;;22.70;1.00;;;;;;5112606;28;20529;-61
2023/07/01 07:49:01;;;;;;;29.83;22.88;;;22.70;1.00;;;;;;5114440;28;20042;-61
2023/07/01 07:51:27;;;;;;;28.70;23.10;;;22.60;1.00;;;;;;5114824;28;20334;-61
2023/07/01 07:53:54;;;;;;;30.88;23.65;;;22.70;1.00;;;;;;5097361;28;20046;-61
2023/07/01 07:56:20;;;;;;;30.65;23.42;;;22.70;1.00;;;;;;5114600;28;20028;-61
2023/07/01 07:58:45;;;;;;;28.83;22.25;;;22.60;1.00;;;;;;5096266;28;20088;-61
2023/07/01 08:01:12;;;;;;;26.45;20.27;;;22.60;1.00;;;;;;5104133;28;20024;-61
2023/07/01 08:03:39;;;;;;;30.90;23.63;;;22.80;1.00;;;;;;5106262;28;20500;-61
2023/07/01 08:06:05;;;;;;;29.35;23.63;;;22.50;1.00;;;;;;5110113;28;20016;-61
2023/07/01 08:08:31;;;;;;;31.98;24.65;;;22.60;1.00;;;;;;5114628;28;20036;-61
2023/07/01 08:10:58;;;;;;;29.38;23.52;;;22.70;1.00;;;;;;5115387;28;20377;-61
2023/07/01 08:13:24;;;;;;;31.58;23.73;;;22.70;1.00;;;;;;5102599;28;20120;-61
2023/07/01 08:15:50;;;;;;;28.25;23.48;;;22.80;1.00;;;;;;5097364;28;20045;-60
2023/07/01 08:18:16;;;;;;;33.47;25.10;;;22.60;1.00;;;;;;5101444;28;20477;-61
2023/07/01 08:20:44;;;;;;;29.52;23.33;;;22.60;1.00;;;;;;5115157;28;20018;-61
2023/07/01 08:23:10;;;;;;;31.50;24.67;;;22.80;1.00;;;;;;5114214;28;20139;-61
2023/07/01 08:25:38;;;;;;;33.38;22.05;;;23.00;1.00;;;;;;5112699;28;20027;-61
2023/07/01 08:28:04;;;;;;;27.73;22.35;;;22.90;1.00;;;;;;5115449;28;20055;-61
2023/07/01 08:30:30;;;;;;;31.00;24.15;;;23.00;1.00;;;;;;5095437;28;20513;-61
2023/07/01 08:32:56;;;;;;;28.17;22.13;;;23.00;1.00;;;;;;5102608;28;20115;-61
2023/07/01 08:35:21;;;;;;;26.13;20.50;;;23.20;1.00;;;;;;5103239;28;20047;-61
2023/07/01 08:37:47;;;;;;;25.17;21.02;;;23.00;1.00;;;;;;5111556;28;20142;-61
2023/07/01 08:40:13;;;;;;;25.00;18.83;;;22.90;1.00;;;;;;5115033;28;20540;-61
2023/07/01 08:42:49;;;;;;;22.85;19.88;;;23.00;1.00;;;;;;5113972;28;20023;-61
2023/07/01 08:45:15;;;;;;;23.80;19.30;;;22.90;1.00;;;;;;5114503;28;20126;-61
2023/07/01 08:47:41;;;;;;;23.40;19.50;;;22.80;1.00;;;;;;5113961;28;20481;-61
2023/07/01 08:50:09;;;;;;;22.00;17.13;;;22.90;1.00;;;;;;5114741;28;20110;-61
2023/07/01 08:52:44;;;;;;;19.80;17.70;;;22.90;1.00;;;;;;5108759;28;20038;-61
2023/07/01 08:55:11;;;;;;;21.80;17.50;;;23.00;1.00;;;;;;5107796;28;20380;-61
2023/07/01 08:57:41;;;;;;;21.73;17.95;;;23.10;1.00;;;;;;5113365;28;20020;-61
2023/07/01 09:00:09;;;;;;;22.95;17.98;;;23.20;1.00;;;;;;5084044;28;20452;-61
2023/07/01 09:02:35;;;;;;;19.48;16.40;;;23.20;1.00;;;;;;5098073;28;20419;-61
2023/07/01 09:05:02;;;;;;;19.75;17.65;;;23.10;1.00;;;;;;5100690;28;20020;-61
2023/07/01 09:07:29;;;;;;;20.42;17.02;;;23.20;1.00;;;;;;5113370;28;20043;-61
2023/07/01 09:09:56;;;;;;;19.50;17.33;;;23.20;1.00;;;;;;5077204;28;20036;-60
2023/07/01 09:12:26;;;;;;;18.55;16.48;;;23.20;1.00;;;;;;5094314;28;20035;-60
2023/07/01 09:14:55;;;;;;;18.30;15.52;;;23.30;1.00;;;;;;5111095;28;20016;-61
2023/07/01 09:17:30;;;;;;;19.02;15.77;;;23.40;1.00;;;;;;5114442;28;20079;-60
2023/07/01 09:20:01;;;;;;;18.02;15.60;;;23.50;1.00;;;;;;5113836;28;20110;-61
2023/07/01 09:22:28;;;;;;;21.05;16.90;;;23.60;1.00;;;;;;5114655;28;20034;-60
2023/07/01 09:24:54;;;;;;;19.33;17.35;;;23.60;1.00;;;;;;5113649;28;20036;-61
2023/07/01 09:27:20;;;;;;;17.33;15.43;;;23.80;1.00;;;;;;5113233;28;20040;-61
2023/07/01 09:29:46;;;;;;;23.33;18.23;;;24.00;1.00;;;;;;5100478;28;20092;-61
2023/07/01 09:32:26;;;;;;;17.30;15.50;;;24.10;1.00;;;;;;5099558;28;20020;-61
2023/07/01 09:34:57;;;;;;;17.05;15.07;;;24.30;1.00;;;;;;5114392;28;20034;-61
2023/07/01 09:37:24;;;;;;;18.45;16.45;;;24.40;1.00;;;;;;5106529;28;20111;-61
2023/07/01 09:39:50;;;;;;;21.75;18.20;;;24.50;1.00;;;;;;5103669;28;20039;-61
2023/07/01 09:42:18;;;;;;;17.50;15.57;;;24.50;1.00;;;;;;5110418;28;20190;-64
2023/07/01 09:45:03;;;;;;;15.52;13.93;;;24.40;1.00;;;;;;5101496;28;20633;-65
2023/07/01 09:47:28;;;;;;;17.05;14.27;;;24.40;1.00;;;;;;5106648;28;20396;-66
2023/07/01 09:49:54;;;;;;;23.83;15.10;;;24.40;1.00;;;;;;5113831;28;20098;-65
2023/07/01 09:52:33;;;;;;;18.02;14.57;;;24.30;1.00;;;;;;5090514;28;20051;-64
2023/07/01 09:55:03;;;;;;;17.10;15.30;;;24.30;1.00;;;;;;5105829;28;20388;-63
2023/07/01 09:57:29;;;;;;;19.48;16.77;;;24.30;1.00;;;;;;5112154;28;20073;-61
2023/07/01 09:59:56;;;;;;;19.92;16.42;;;24.30;1.00;;;;;;5103978;28;20110;-68
2023/07/01 10:02:22;;;;;;;83.82;20.75;;;24.50;1.00;;;;;;5112718;28;20103;-68
2023/07/01 10:04:48;;;;;;;64.90;20.58;;;24.70;1.00;;;;;;5098536;28;20112;-68
2023/07/01 10:09:28;;;;;;;28.88;14.85;;;25.10;1.00;;;;;;5063085;28;20440;-57
2023/07/01 10:11:57;;;;;;;20.80;15.10;;;25.10;1.00;;;;;;5070765;28;20166;-57
2023/07/01 10:14:25;;;;;;;17.33;15.27;;;25.00;1.00;;;;;;5069594;28;20490;-57
2023/07/01 10:16:51;;;;;;;17.77;14.98;;;25.20;1.00;;;;;;5068298;28;20066;-58
2023/07/01 10:19:28;;;;;;;17.33;15.00;;;25.30;1.00;;;;;;5070341;28;20570;-55
2023/07/01 10:22:14;;;;;;;16.08;13.63;;;25.10;1.00;;;;;;5069318;28;20052;-57
2023/07/01 10:24:42;;;;;;;15.05;13.52;;;25.20;1.00;;;;;;5062098;28;20025;-56
2023/07/01 10:27:08;;;;;;;14.13;12.70;;;25.30;1.00;;;;;;5068124;28;20021;-59
2023/07/01 10:30:05;;;;;;;15.95;14.25;;;25.50;1.00;;;;;;5068844;28;20043;-58
2023/07/01 10:32:32;;;;;;;17.98;13.77;;;25.60;1.00;;;;;;5057025;28;20024;-56
2023/07/01 10:35:01;;;;;;;16.20;14.45;;;25.70;1.00;;;;;;5069986;28;20033;-58
2023/07/01 10:37:27;;;;;;;16.38;14.57;;;25.70;1.00;;;;;;5062510;28;20033;-57
2023/07/01 10:39:54;;;;;;;18.67;15.23;;;25.60;1.00;;;;;;5068919;28;20036;-54
2023/07/01 10:42:33;;;;;;;20.63;16.48;;;25.70;1.00;;;;;;5069795;28;20094;-56
2023/07/01 10:45:11;;;;;;;20.23;16.75;;;25.90;1.00;;;;;;5062164;28;20394;-56
2023/07/01 10:47:59;;;;;;;19.50;17.40;;;25.80;1.00;;;;;;5067532;28;20035;-54
2023/07/01 10:50:25;;;;;;;19.23;17.25;;;25.90;1.00;;;;;;5069340;28;20044;-54
2023/07/01 10:52:57;;;;;;;18.42;16.63;;;26.00;1.00;;;;;;5068432;28;20028;-56
2023/07/01 10:55:36;;;;;;;18.88;17.05;;;26.10;1.00;;;;;;5069624;28;20489;-51
2023/07/01 10:58:18;;;;;;;19.80;17.88;;;26.10;1.00;;;;;;5064225;28;20024;-52
2023/07/01 11:00:45;;;;;;;19.80;17.77;;;26.10;1.00;;;;;;5069411;28;20025;-53
2023/07/01 11:03:36;;;;;;;22.33;20.02;;;26.60;1.00;;;;;;5064796;28;20478;-54
2023/07/01 11:06:13;;;;;;;19.77;17.38;;;26.90;1.00;;;;;;5065292;28;20040;-55
2023/07/01 11:08:50;;;;;;;20.13;17.92;;;27.20;1.00;;;;;;5068139;28;20083;-56
2023/07/01 11:11:24;;;;;;;20.40;18.40;;;27.20;1.00;;;;;;5069116;28;20039;-56
2023/07/01 11:14:00;;;;;;;18.65;16.75;;;27.40;1.00;;;;;;5067339;28;20029;-49
2023/07/01 11:16:28;;;;;;;19.35;17.45;;;27.50;1.00;;;;;;5066999;28;20028;-53
2023/07/01 11:18:56;;;;;;;18.55;16.83;;;27.90;1.00;;;;;;5065869;28;20379;-55
2023/07/01 11:21:27;;;;;;;20.65;18.58;;;27.20;1.00;;;;;;5052544;28;20022;-52
2023/07/01 11:23:58;;;;;;;18.95;17.08;;;26.80;1.00;;;;;;5055419;28;20048;-51
2023/07/01 11:26:25;;;;;;;19.33;17.52;;;28.30;99.90;;;;;;5053968;28;20036;-51
2023/07/01 11:28:52;;;;;;;20.60;18.67;;;32.00;99.90;;;;;;5040239;28;20041;-52
2023/07/01 11:31:20;;;;;;;19.67;17.77;;;34.00;99.90;;;;;;5041658;28;20033;-56
2023/07/01 11:33:50;;;;;;;19.17;17.48;;;33.50;99.90;;;;;;5052627;28;20479;-55
2023/07/01 11:36:18;;;;;;;17.52;16.00;;;31.40;99.90;;;;;;5040502;28;20382;-55
2023/07/01 11:38:48;;;;;;;16.77;15.27;;;31.50;99.90;;;;;;5053398;28;20037;-57
2023/07/01 11:41:17;;;;;;;16.58;15.00;;;34.00;99.90;;;;;;5050398;28;20056;-58
2023/07/01 11:43:43;;;;;;;17.02;15.35;;;34.40;99.90;;;;;;5054432;28;20529;-58
2023/07/01 11:46:09;;;;;;;18.20;16.50;;;32.20;99.90;;;;;;5055277;28;20469;-58
2023/07/01 11:48:35;;;;;;;17.05;15.55;;;35.90;99.90;;;;;;5054221;28;20041;-57
2023/07/01 11:51:01;;;;;;;16.55;15.05;;;34.90;99.90;;;;;;5055129;28;20036;-58
2023/07/01 11:53:27;;;;;;;16.13;14.82;;;32.40;99.90;;;;;;5052852;28;20075;-58
2023/07/01 11:55:56;;;;;;;17.48;14.52;;;34.30;99.90;;;;;;5054024;28;22052;-58
2023/07/01 11:58:30;;;;;;;14.77;13.55;;;31.90;99.90;;;;;;5041071;28;20470;-58
2023/07/01 12:00:56;;;;;;;14.05;12.85;;;30.90;99.90;;;;;;5054284;28;20021;-58
2023/07/01 12:03:22;;;;;;;13.13;12.02;;;35.50;99.90;;;;;;5053475;28;20040;-56
2023/07/01 12:05:48;;;;;;;13.25;12.15;;;38.80;99.90;;;;;;5053980;28;20029;-55
2023/07/01 12:08:14;;;;;;;14.23;12.93;;;38.10;99.90;;;;;;5054666;28;20061;-56
2023/07/01 12:10:40;;;;;;;15.02;13.50;;;36.70;99.90;;;;;;5052076;28;20025;-57
2023/07/01 12:13:07;;;;;;;13.52;12.35;;;33.80;99.90;;;;;;5053857;28;20116;-57
2023/07/01 12:15:50;;;;;;;16.65;15.07;;;34.90;99.90;;;;;;5052490;28;20455;-57
2023/07/01 12:18:29;;;;;;;14.27;13.18;;;33.20;99.90;;;;;;5053675;28;20028;-58
2023/07/01 12:20:56;;;;;;;14.18;12.88;;;33.60;99.90;;;;;;5053898;28;20061;-54
2023/07/01 12:23:22;;;;;;;13.40;12.20;;;33.50;99.90;;;;;;5053532;28;20032;-57
2023/07/01 12:25:48;;;;;;;13.38;12.23;;;34.30;99.90;;;;;;5054833;28;20044;-57
2023/07/01 12:28:14;;;;;;;12.55;11.45;;;35.10;99.90;;;;;;5052008;28;20383;-54
2023/07/01 12:30:40;;;;;;;11.38;10.40;;;33.20;99.90;;;;;;5046788;28;20025;-56
2023/07/01 12:33:05;;;;;;;14.77;11.35;;;32.50;99.90;;;;;;5049128;28;20037;-54
2023/07/01 12:35:32;;;;;;;10.52;9.70;;;32.50;99.90;;;;;;5054396;28;20483;-55
2023/07/01 12:37:58;;;;;;;10.65;9.85;;;33.80;99.90;;;;;;5053468;28;20029;-57
2023/07/01 12:40:27;;;;;;;11.25;10.20;;;34.00;99.90;;;;;;5054582;28;20033;-58